sensor_id;sensor_type;location;lat;lon;timestamp;temperature;humidity
1778;DHT22;886;50.082;8.222;2023-04-29T00:01:57;12.10;99.90
1778;DHT22;886;50.082;8.222;2023-04-29T00:04:25;12.20;99.90
1778;DHT22;886;50.082;8.222;2023-04-29T00:06:54;12.20;99.90
1778;DHT22;886;50.082;8.222;2023-04-29T00:09:22;12.30;99.90
1778;DHT22;886;50.082;8.222;2023-04-29T00:11:49;12.40;99.90
1778;DHT22;886;50.082;8.222;2023-04-29T00:14:16;12.40;99.90
1778;DHT22;886;50.082;8.222;2023-04-29T00:16:44;12.40;99.90
1778;DHT22;886;50.082;8.222;2023-04-29T00:19:11;12.50;99.90
1778;DHT22;886;50.082;8.222;2023-04-29T00:21:39;12.50;99.90
1778;DHT22;886;50.082;8.222;2023-04-29T00:24:07;12.50;99.90
1778;DHT22;886;50.082;8.222;2023-04-29T00:26:34;12.30;99.90
1778;DHT22;886;50.082;8.222;2023-04-29T00:29:01;12.30;99.90
1778;DHT22;886;50.082;8.222;2023-04-29T00:31:28;12.40;99.90
1778;DHT22;886;50.082;8.222;2023-04-29T00:33:56;12.40;99.90
1778;DHT22;886;50.082;8.222;2023-04-29T00:36:23;12.40;99.90
1778;DHT22;886;50.082;8.222;2023-04-29T00:38:52;12.50;99.90
1778;DHT22;886;50.082;8.222;2023-04-29T00:41:20;12.50;99.90
1778;DHT22;886;50.082;8.222;2023-04-29T00:43:47;12.60;99.90
1778;DHT22;886;50.082;8.222;2023-04-29T00:46:14;12.60;99.90
1778;DHT22;886;50.082;8.222;2023-04-29T00:48:41;12.60;99.90
1778;DHT22;886;50.082;8.222;2023-04-29T00:51:10;12.70;99.90
1778;DHT22;886;50.082;8.222;2023-04-29T00:53:38;12.60;99.90
1778;DHT22;886;50.082;8.222;2023-04-29T00:56:05;12.50;99.90
1778;DHT22;886;50.082;8.222;2023-04-29T00:58:35;12.50;99.90
1778;DHT22;886;50.082;8.222;2023-04-29T01:01:02;12.60;99.90
1778;DHT22;886;50.082;8.222;2023-04-29T01:03:30;12.60;99.90
1778;DHT22;886;50.082;8.222;2023-04-29T01:06:06;12.40;99.90
1778;DHT22;886;50.082;8.222;2023-04-29T01:08:44;12.40;99.90
1778;DHT22;886;50.082;8.222;2023-04-29T01:11:21;12.40;99.90
1778;DHT22;886;50.082;8.222;2023-04-29T01:13:55;12.40;99.90
1778;DHT22;886;50.082;8.222;2023-04-29T01:16:33;12.40;99.90
1778;DHT22;886;50.082;8.222;2023-04-29T01:19:14;12.50;99.90
1778;DHT22;886;50.082;8.222;2023-04-29T01:21:46;12.50;99.90
1778;DHT22;886;50.082;8.222;2023-04-29T01:24:16;12.40;99.90
1778;DHT22;886;50.082;8.222;2023-04-29T01:26:48;12.20;99.90
1778;DHT22;886;50.082;8.222;2023-04-29T01:29:25;12.20;99.90
1778;DHT22;886;50.082;8.222;2023-04-29T01:31:59;12.20;99.90
1778;DHT22;886;50.082;8.222;2023-04-29T01:34:41;12.30;99.90
1778;DHT22;886;50.082;8.222;2023-04-29T01:37:16;12.20;99.90
1778;DHT22;886;50.082;8.222;2023-04-29T01:39:55;12.20;99.90
1778;DHT22;886;50.082;8.222;2023-04-29T01:42:38;12.10;99.90
1778;DHT22;886;50.082;8.222;2023-04-29T01:45:07;12.20;99.90
1778;DHT22;886;50.082;8.222;2023-04-29T01:47:38;12.20;99.90
1778;DHT22;886;50.082;8.222;2023-04-29T01:50:06;12.20;99.90
1778;DHT22;886;50.082;8.222;2023-04-29T01:52:33;12.20;99.90
1778;DHT22;886;50.082;8.222;2023-04-29T01:55:03;12.20;99.90
1778;DHT22;886;50.082;8.222;2023-04-29T01:57:30;12.20;99.90
1778;DHT22;886;50.082;8.222;2023-04-29T01:59:58;12.20;99.90
1778;DHT22;886;50.082;8.222;2023-04-29T02:02:25;12.20;99.90
1778;DHT22;886;50.082;8.222;2023-04-29T02:04:53;12.20;99.90
1778;DHT22;886;50.082;8.222;2023-04-29T02:07:20;12.30;99.90
1778;DHT22;886;50.082;8.222;2023-04-29T02:09:48;12.30;99.90
1778;DHT22;886;50.082;8.222;2023-04-29T02:12:17;12.30;99.90
1778;DHT22;886;50.082;8.222;2023-04-29T02:14:45;12.40;99.90
1778;DHT22;886;50.082;8.222;2023-04-29T02:17:13;12.40;99.90
1778;DHT22;886;50.082;8.222;2023-04-29T02:19:41;12.50;99.90
1778;DHT22;886;50.082;8.222;2023-04-29T02:22:08;12.50;99.90
1778;DHT22;886;50.082;8.222;2023-04-29T02:24:38;12.50;99.90
1778;DHT22;886;50.082;8.222;2023-04-29T02:27:05;12.50;99.90
1778;DHT22;886;50.082;8.222;2023-04-29T02:29:34;12.50;99.90
1778;DHT22;886;50.082;8.222;2023-04-29T02:32:01;12.60;99.90
1778;DHT22;886;50.082;8.222;2023-04-29T02:34:28;12.60;99.90
1778;DHT22;886;50.082;8.222;2023-04-29T02:36:56;12.60;99.90
1778;DHT22;886;50.082;8.222;2023-04-29T02:39:24;12.60;99.90
1778;DHT22;886;50.082;8.222;2023-04-29T02:41:53;12.60;99.90
1778;DHT22;886;50.082;8.222;2023-04-29T02:44:21;12.50;99.90
1778;DHT22;886;50.082;8.222;2023-04-29T02:46:50;12.50;99.90
1778;DHT22;886;50.082;8.222;2023-04-29T02:49:18;12.40;99.90
1778;DHT22;886;50.082;8.222;2023-04-29T02:51:45;12.40;99.90
1778;DHT22;886;50.082;8.222;2023-04-29T02:54:12;12.40;99.90
1778;DHT22;886;50.082;8.222;2023-04-29T02:56:39;12.60;99.90
1778;DHT22;886;50.082;8.222;2023-04-29T02:59:07;12.70;99.90
1778;DHT22;886;50.082;8.222;2023-04-29T03:01:35;12.80;99.90
1778;DHT22;886;50.082;8.222;2023-04-29T03:04:23;12.80;99.90
1778;DHT22;886;50.082;8.222;2023-04-29T03:06:50;12.90;99.90
1778;DHT22;886;50.082;8.222;2023-04-29T03:09:17;12.90;99.90
1778;DHT22;886;50.082;8.222;2023-04-29T03:11:45;13.00;99.90
1778;DHT22;886;50.082;8.222;2023-04-29T03:14:11;13.00;99.90
1778;DHT22;886;50.082;8.222;2023-04-29T03:16:38;13.00;99.90
1778;DHT22;886;50.082;8.222;2023-04-29T03:19:06;13.00;99.90
1778;DHT22;886;50.082;8.222;2023-04-29T03:21:35;12.90;99.90
1778;DHT22;886;50.082;8.222;2023-04-29T03:24:02;12.90;99.90
1778;DHT22;886;50.082;8.222;2023-04-29T03:26:29;13.00;99.90
1778;DHT22;886;50.082;8.222;2023-04-29T03:28:56;13.00;99.90
1778;DHT22;886;50.082;8.222;2023-04-29T03:31:24;13.00;99.90
1778;DHT22;886;50.082;8.222;2023-04-29T03:33:53;12.90;99.90
1778;DHT22;886;50.082;8.222;2023-04-29T03:36:20;12.90;99.90
1778;DHT22;886;50.082;8.222;2023-04-29T03:38:49;12.90;99.90
1778;DHT22;886;50.082;8.222;2023-04-29T03:41:16;12.90;99.90
1778;DHT22;886;50.082;8.222;2023-04-29T03:43:44;12.90;99.90
1778;DHT22;886;50.082;8.222;2023-04-29T03:46:12;12.90;99.90
1778;DHT22;886;50.082;8.222;2023-04-29T03:48:39;12.90;99.90
1778;DHT22;886;50.082;8.222;2023-04-29T03:51:07;12.80;99.90
1778;DHT22;886;50.082;8.222;2023-04-29T03:53:35;12.80;99.90
1778;DHT22;886;50.082;8.222;2023-04-29T03:56:04;12.80;99.90
1778;DHT22;886;50.082;8.222;2023-04-29T03:58:32;12.80;99.90
1778;DHT22;886;50.082;8.222;2023-04-29T04:00:59;12.80;99.90
1778;DHT22;886;50.082;8.222;2023-04-29T04:03:26;12.80;99.90
1778;DHT22;886;50.082;8.222;2023-04-29T04:05:54;12.80;99.90
1778;DHT22;886;50.082;8.222;2023-04-29T04:08:20;12.80;99.90
1778;DHT22;886;50.082;8.222;2023-04-29T04:10:48;12.80;99.90
1778;DHT22;886;50.082;8.222;2023-04-29T04:13:16;12.90;99.90
1778;DHT22;886;50.082;8.222;2023-04-29T04:15:48;12.90;99.90
1778;DHT22;886;50.082;8.222;2023-04-29T04:18:17;12.80;99.90
1778;DHT22;886;50.082;8.222;2023-04-29T04:20:44;12.80;99.90
1778;DHT22;886;50.082;8.222;2023-04-29T04:23:11;12.90;99.90
1778;DHT22;886;50.082;8.222;2023-04-29T04:25:44;12.90;99.90
1778;DHT22;886;50.082;8.222;2023-04-29T04:28:12;12.90;99.90
1778;DHT22;886;50.082;8.222;2023-04-29T04:30:41;12.90;99.90
1778;DHT22;886;50.082;8.222;2023-04-29T04:33:09;13.00;99.90
1778;DHT22;886;50.082;8.222;2023-04-29T04:35:36;13.00;99.90
1778;DHT22;886;50.082;8.222;2023-04-29T04:38:03;13.00;99.90
1778;DHT22;886;50.082;8.222;2023-04-29T04:40:31;13.00;99.90
1778;DHT22;886;50.082;8.222;2023-04-29T04:42:58;13.00;99.90
1778;DHT22;886;50.082;8.222;2023-04-29T04:45:25;13.00;99.90
1778;DHT22;886;50.082;8.222;2023-04-29T04:47:55;13.10;99.90
1778;DHT22;886;50.082;8.222;2023-04-29T04:50:22;13.10;99.90
1778;DHT22;886;50.082;8.222;2023-04-29T04:52:49;13.20;99.90
1778;DHT22;886;50.082;8.222;2023-04-29T04:55:17;13.10;99.90
1778;DHT22;886;50.082;8.222;2023-04-29T04:57:44;13.10;99.90
1778;DHT22;886;50.082;8.222;2023-04-29T05:00:12;13.10;99.90
1778;DHT22;886;50.082;8.222;2023-04-29T05:02:40;13.10;99.90
1778;DHT22;886;50.082;8.222;2023-04-29T05:05:09;13.10;99.90
1778;DHT22;886;50.082;8.222;2023-04-29T05:07:36;13.20;99.90
1778;DHT22;886;50.082;8.222;2023-04-29T05:10:04;13.30;99.90
1778;DHT22;886;50.082;8.222;2023-04-29T05:12:34;13.30;99.90
1778;DHT22;886;50.082;8.222;2023-04-29T05:15:01;13.50;99.90
1778;DHT22;886;50.082;8.222;2023-04-29T05:17:28;13.40;99.90
1778;DHT22;886;50.082;8.222;2023-04-29T05:19:56;13.50;99.90
1778;DHT22;886;50.082;8.222;2023-04-29T05:22:24;13.60;99.90
1778;DHT22;886;50.082;8.222;2023-04-29T05:24:52;13.60;99.90
1778;DHT22;886;50.082;8.222;2023-04-29T05:27:20;13.60;99.90
1778;DHT22;886;50.082;8.222;2023-04-29T05:29:47;13.50;99.90
1778;DHT22;886;50.082;8.222;2023-04-29T05:32:15;13.40;99.90
1778;DHT22;886;50.082;8.222;2023-04-29T05:34:42;13.30;99.90
1778;DHT22;886;50.082;8.222;2023-04-29T05:37:10;13.20;99.90
1778;DHT22;886;50.082;8.222;2023-04-29T05:39:38;13.20;99.90
1778;DHT22;886;50.082;8.222;2023-04-29T05:42:06;13.20;99.90
1778;DHT22;886;50.082;8.222;2023-04-29T05:44:33;13.10;99.90
1778;DHT22;886;50.082;8.222;2023-04-29T05:47:00;13.10;99.90
1778;DHT22;886;50.082;8.222;2023-04-29T05:49:27;13.10;99.90
1778;DHT22;886;50.082;8.222;2023-04-29T05:51:54;13.20;99.90
1778;DHT22;886;50.082;8.222;2023-04-29T05:54:21;13.20;99.90
1778;DHT22;886;50.082;8.222;2023-04-29T05:56:50;13.20;99.90
1778;DHT22;886;50.082;8.222;2023-04-29T05:59:17;13.30;99.90
1778;DHT22;886;50.082;8.222;2023-04-29T06:01:45;13.30;99.90
1778;DHT22;886;50.082;8.222;2023-04-29T06:04:12;13.40;99.90
1778;DHT22;886;50.082;8.222;2023-04-29T06:06:40;13.40;99.90
1778;DHT22;886;50.082;8.222;2023-04-29T06:09:07;13.50;99.90
1778;DHT22;886;50.082;8.222;2023-04-29T06:11:54;13.50;99.90
1778;DHT22;886;50.082;8.222;2023-04-29T06:14:22;13.80;99.90
1778;DHT22;886;50.082;8.222;2023-04-29T06:16:49;13.80;99.90
1778;DHT22;886;50.082;8.222;2023-04-29T06:19:17;13.90;99.90
1778;DHT22;886;50.082;8.222;2023-04-29T06:21:45;14.00;99.90
1778;DHT22;886;50.082;8.222;2023-04-29T06:24:12;14.00;99.90
1778;DHT22;886;50.082;8.222;2023-04-29T06:26:39;14.00;99.90
1778;DHT22;886;50.082;8.222;2023-04-29T06:29:08;13.80;99.90
1778;DHT22;886;50.082;8.222;2023-04-29T06:31:35;13.70;99.90
1778;DHT22;886;50.082;8.222;2023-04-29T06:34:02;13.70;99.90
1778;DHT22;886;50.082;8.222;2023-04-29T06:36:29;13.70;99.90
1778;DHT22;886;50.082;8.222;2023-04-29T06:38:58;13.70;99.90
1778;DHT22;886;50.082;8.222;2023-04-29T06:41:25;13.60;99.90
1778;DHT22;886;50.082;8.222;2023-04-29T06:43:52;13.70;99.90
1778;DHT22;886;50.082;8.222;2023-04-29T06:46:21;13.60;99.90
1778;DHT22;886;50.082;8.222;2023-04-29T06:48:48;13.60;99.90
1778;DHT22;886;50.082;8.222;2023-04-29T06:51:15;13.60;99.90
1778;DHT22;886;50.082;8.222;2023-04-29T06:53:42;13.60;99.90
1778;DHT22;886;50.082;8.222;2023-04-29T06:56:09;13.60;99.90
1778;DHT22;886;50.082;8.222;2023-04-29T06:58:36;13.60;99.90
1778;DHT22;886;50.082;8.222;2023-04-29T07:01:04;13.60;99.90
1778;DHT22;886;50.082;8.222;2023-04-29T07:03:34;13.70;99.90
1778;DHT22;886;50.082;8.222;2023-04-29T07:06:02;13.60;99.90
1778;DHT22;886;50.082;8.222;2023-04-29T07:08:29;13.70;99.90
1778;DHT22;886;50.082;8.222;2023-04-29T07:10:58;13.70;99.90
1778;DHT22;886;50.082;8.222;2023-04-29T07:13:25;13.80;99.90
1778;DHT22;886;50.082;8.222;2023-04-29T07:15:52;13.90;99.90
1778;DHT22;886;50.082;8.222;2023-04-29T07:18:19;13.90;99.90
1778;DHT22;886;50.082;8.222;2023-04-29T07:20:48;14.10;99.90
1778;DHT22;886;50.082;8.222;2023-04-29T07:23:16;14.10;99.90
1778;DHT22;886;50.082;8.222;2023-04-29T07:25:44;14.10;99.90
1778;DHT22;886;50.082;8.222;2023-04-29T07:28:11;14.10;99.90
1778;DHT22;886;50.082;8.222;2023-04-29T07:30:38;14.00;99.90
1778;DHT22;886;50.082;8.222;2023-04-29T07:33:05;14.00;99.90
1778;DHT22;886;50.082;8.222;2023-04-29T07:35:33;13.90;99.90
1778;DHT22;886;50.082;8.222;2023-04-29T07:38:01;13.90;99.90
1778;DHT22;886;50.082;8.222;2023-04-29T07:40:28;13.80;99.90
1778;DHT22;886;50.082;8.222;2023-04-29T07:42:55;13.90;99.90
1778;DHT22;886;50.082;8.222;2023-04-29T07:45:23;13.80;99.90
1778;DHT22;886;50.082;8.222;2023-04-29T07:47:50;13.80;99.90
1778;DHT22;886;50.082;8.222;2023-04-29T07:50:18;13.80;99.90
1778;DHT22;886;50.082;8.222;2023-04-29T07:52:45;13.80;99.90
1778;DHT22;886;50.082;8.222;2023-04-29T07:55:14;13.90;99.90
1778;DHT22;886;50.082;8.222;2023-04-29T07:57:42;13.90;99.90
1778;DHT22;886;50.082;8.222;2023-04-29T08:00:09;13.90;99.90
1778;DHT22;886;50.082;8.222;2023-04-29T08:02:37;13.90;99.90
1778;DHT22;886;50.082;8.222;2023-04-29T08:05:05;13.90;99.90
1778;DHT22;886;50.082;8.222;2023-04-29T08:07:33;13.80;99.90
1778;DHT22;886;50.082;8.222;2023-04-29T08:10:00;13.80;99.90
1778;DHT22;886;50.082;8.222;2023-04-29T08:12:28;13.80;99.90
1778;DHT22;886;50.082;8.222;2023-04-29T08:14:57;13.90;99.90
1778;DHT22;886;50.082;8.222;2023-04-29T08:17:24;13.90;99.90
1778;DHT22;886;50.082;8.222;2023-04-29T08:19:51;14.00;99.90
1778;DHT22;886;50.082;8.222;2023-04-29T08:22:19;14.10;99.90
1778;DHT22;886;50.082;8.222;2023-04-29T08:24:46;14.00;99.90
1778;DHT22;886;50.082;8.222;2023-04-29T08:27:15;13.90;99.90
1778;DHT22;886;50.082;8.222;2023-04-29T08:29:44;13.80;99.90
1778;DHT22;886;50.082;8.222;2023-04-29T08:32:11;13.70;99.90
1778;DHT22;886;50.082;8.222;2023-04-29T08:34:39;13.70;99.90
1778;DHT22;886;50.082;8.222;2023-04-29T08:37:07;13.70;99.90
1778;DHT22;886;50.082;8.222;2023-04-29T08:39:35;13.60;99.90
1778;DHT22;886;50.082;8.222;2023-04-29T08:42:07;13.50;99.90
1778;DHT22;886;50.082;8.222;2023-04-29T08:44:39;13.50;99.90
1778;DHT22;886;50.082;8.222;2023-04-29T08:47:09;13.40;99.90
1778;DHT22;886;50.082;8.222;2023-04-29T08:49:36;13.40;99.90
1778;DHT22;886;50.082;8.222;2023-04-29T08:52:06;13.40;99.90
1778;DHT22;886;50.082;8.222;2023-04-29T08:54:33;13.50;99.90
1778;DHT22;886;50.082;8.222;2023-04-29T08:57:05;13.50;99.90
1778;DHT22;886;50.082;8.222;2023-04-29T08:59:33;13.60;99.90
1778;DHT22;886;50.082;8.222;2023-04-29T09:02:04;13.60;99.90
1778;DHT22;886;50.082;8.222;2023-04-29T09:04:40;13.70;99.90
1778;DHT22;886;50.082;8.222;2023-04-29T09:07:14;13.70;99.90
1778;DHT22;886;50.082;8.222;2023-04-29T09:09:42;13.80;99.90
1778;DHT22;886;50.082;8.222;2023-04-29T09:12:10;13.80;99.90
1778;DHT22;886;50.082;8.222;2023-04-29T09:14:41;13.90;99.90
1778;DHT22;886;50.082;8.222;2023-04-29T09:17:42;13.90;99.90
1778;DHT22;886;50.082;8.222;2023-04-29T09:20:27;13.90;99.90
1778;DHT22;886;50.082;8.222;2023-04-29T09:22:57;14.00;99.90
1778;DHT22;886;50.082;8.222;2023-04-29T09:25:29;14.10;99.90
1778;DHT22;886;50.082;8.222;2023-04-29T09:28:14;14.20;99.90
1778;DHT22;886;50.082;8.222;2023-04-29T09:30:45;14.20;99.90
1778;DHT22;886;50.082;8.222;2023-04-29T09:33:13;14.20;99.90
1778;DHT22;886;50.082;8.222;2023-04-29T09:35:43;14.10;99.90
1778;DHT22;886;50.082;8.222;2023-04-29T09:38:15;14.10;99.90
1778;DHT22;886;50.082;8.222;2023-04-29T09:40:43;14.10;99.90
1778;DHT22;886;50.082;8.222;2023-04-29T09:43:24;14.10;99.90
1778;DHT22;886;50.082;8.222;2023-04-29T09:45:52;14.10;99.90
1778;DHT22;886;50.082;8.222;2023-04-29T09:48:21;14.00;99.90
1778;DHT22;886;50.082;8.222;2023-04-29T09:51:00;13.90;99.90
1778;DHT22;886;50.082;8.222;2023-04-29T09:53:31;13.80;99.90
1778;DHT22;886;50.082;8.222;2023-04-29T09:55:59;13.80;99.90
1778;DHT22;886;50.082;8.222;2023-04-29T09:58:29;13.80;99.90
1778;DHT22;886;50.082;8.222;2023-04-29T10:01:01;13.80;99.90
1778;DHT22;886;50.082;8.222;2023-04-29T10:03:32;13.80;99.90
1778;DHT22;886;50.082;8.222;2023-04-29T10:06:07;13.90;99.90
1778;DHT22;886;50.082;8.222;2023-04-29T10:08:35;13.90;99.90
1778;DHT22;886;50.082;8.222;2023-04-29T10:11:03;13.90;99.90
1778;DHT22;886;50.082;8.222;2023-04-29T10:13:34;13.90;99.90
1778;DHT22;886;50.082;8.222;2023-04-29T10:16:14;14.10;99.90
1778;DHT22;886;50.082;8.222;2023-04-29T10:18:53;14.20;99.90
1778;DHT22;886;50.082;8.222;2023-04-29T10:21:27;14.30;99.90
1778;DHT22;886;50.082;8.222;2023-04-29T10:23:58;14.40;99.90
1778;DHT22;886;50.082;8.222;2023-04-29T10:26:27;14.60;99.90
1778;DHT22;886;50.082;8.222;2023-04-29T10:28:55;14.80;99.90
1778;DHT22;886;50.082;8.222;2023-04-29T10:31:27;15.00;99.90
1778;DHT22;886;50.082;8.222;2023-04-29T10:33:56;15.20;99.90
1778;DHT22;886;50.082;8.222;2023-04-29T10:36:26;15.40;99.90
1778;DHT22;886;50.082;8.222;2023-04-29T10:38:58;15.60;99.90
1778;DHT22;886;50.082;8.222;2023-04-29T10:41:35;15.70;99.90
1778;DHT22;886;50.082;8.222;2023-04-29T10:44:04;15.80;99.90
1778;DHT22;886;50.082;8.222;2023-04-29T10:46:31;15.70;99.90
1778;DHT22;886;50.082;8.222;2023-04-29T10:49:00;15.50;99.80
1778;DHT22;886;50.082;8.222;2023-04-29T10:51:34;15.20;99.90
1778;DHT22;886;50.082;8.222;2023-04-29T10:54:09;15.10;99.90
1778;DHT22;886;50.082;8.222;2023-04-29T10:56:41;15.00;99.90
1778;DHT22;886;50.082;8.222;2023-04-29T10:59:14;14.80;99.90
1778;DHT22;886;50.082;8.222;2023-04-29T11:01:49;14.70;99.90
1778;DHT22;886;50.082;8.222;2023-04-29T11:04:20;14.60;99.90
1778;DHT22;886;50.082;8.222;2023-04-29T11:06:52;14.60;99.90
1778;DHT22;886;50.082;8.222;2023-04-29T11:09:24;14.50;99.90
1778;DHT22;886;50.082;8.222;2023-04-29T11:11:57;14.50;99.90
1778;DHT22;886;50.082;8.222;2023-04-29T11:14:34;14.80;99.90
1778;DHT22;886;50.082;8.222;2023-04-29T11:17:06;14.90;99.90
1778;DHT22;886;50.082;8.222;2023-04-29T11:19:36;14.90;99.90
1778;DHT22;886;50.082;8.222;2023-04-29T11:22:26;15.00;99.90
1778;DHT22;886;50.082;8.222;2023-04-29T11:24:57;15.10;99.90
1778;DHT22;886;50.082;8.222;2023-04-29T11:27:30;15.40;99.90
1778;DHT22;886;50.082;8.222;2023-04-29T11:30:00;15.70;99.80
1778;DHT22;886;50.082;8.222;2023-04-29T11:32:31;16.00;99.30
1778;DHT22;886;50.082;8.222;2023-04-29T11:35:09;16.40;98.90
1778;DHT22;886;50.082;8.222;2023-04-29T11:37:40;16.70;98.60
1778;DHT22;886;50.082;8.222;2023-04-29T11:40:09;16.60;98.10
1778;DHT22;886;50.082;8.222;2023-04-29T11:42:40;16.50;97.80
1778;DHT22;886;50.082;8.222;2023-04-29T11:45:10;16.20;98.60
1778;DHT22;886;50.082;8.222;2023-04-29T11:47:42;15.90;98.60
1778;DHT22;886;50.082;8.222;2023-04-29T11:50:11;15.80;99.10
1778;DHT22;886;50.082;8.222;2023-04-29T11:52:40;15.80;99.30
1778;DHT22;886;50.082;8.222;2023-04-29T11:55:08;15.80;99.40
1778;DHT22;886;50.082;8.222;2023-04-29T11:57:35;15.80;99.60
1778;DHT22;886;50.082;8.222;2023-04-29T12:00:04;15.90;99.60
1778;DHT22;886;50.082;8.222;2023-04-29T12:02:34;16.00;99.20
1778;DHT22;886;50.082;8.222;2023-04-29T12:05:06;16.10;99.30
1778;DHT22;886;50.082;8.222;2023-04-29T12:07:40;16.20;99.20
1778;DHT22;886;50.082;8.222;2023-04-29T12:10:11;16.40;98.90
1778;DHT22;886;50.082;8.222;2023-04-29T12:12:39;16.70;98.70
1778;DHT22;886;50.082;8.222;2023-04-29T12:15:09;16.80;98.70
1778;DHT22;886;50.082;8.222;2023-04-29T12:17:37;16.40;98.80
1778;DHT22;886;50.082;8.222;2023-04-29T12:20:06;16.10;99.00
1778;DHT22;886;50.082;8.222;2023-04-29T12:22:36;16.00;99.30
1778;DHT22;886;50.082;8.222;2023-04-29T12:25:06;15.90;99.40
1778;DHT22;886;50.082;8.222;2023-04-29T12:27:35;16.00;99.50
1778;DHT22;886;50.082;8.222;2023-04-29T12:30:06;16.10;99.60
1778;DHT22;886;50.082;8.222;2023-04-29T12:32:34;16.20;99.00
1778;DHT22;886;50.082;8.222;2023-04-29T12:35:03;16.30;99.00
1778;DHT22;886;50.082;8.222;2023-04-29T12:37:30;16.30;99.10
1778;DHT22;886;50.082;8.222;2023-04-29T12:39:59;16.30;99.00
1778;DHT22;886;50.082;8.222;2023-04-29T12:42:32;16.40;99.10
1778;DHT22;886;50.082;8.222;2023-04-29T12:45:05;16.40;99.00
1778;DHT22;886;50.082;8.222;2023-04-29T12:47:34;16.40;98.90
1778;DHT22;886;50.082;8.222;2023-04-29T12:50:03;16.40;98.50
1778;DHT22;886;50.082;8.222;2023-04-29T12:52:32;16.40;98.40
1778;DHT22;886;50.082;8.222;2023-04-29T12:55:02;16.40;98.70
1778;DHT22;886;50.082;8.222;2023-04-29T12:57:32;16.50;98.70
1778;DHT22;886;50.082;8.222;2023-04-29T12:59:59;16.40;98.90
1778;DHT22;886;50.082;8.222;2023-04-29T13:02:27;16.40;98.70
1778;DHT22;886;50.082;8.222;2023-04-29T13:04:57;16.20;98.60
1778;DHT22;886;50.082;8.222;2023-04-29T13:07:25;16.20;98.90
1778;DHT22;886;50.082;8.222;2023-04-29T13:09:52;16.20;99.10
1778;DHT22;886;50.082;8.222;2023-04-29T13:12:19;16.10;99.00
1778;DHT22;886;50.082;8.222;2023-04-29T13:14:50;15.90;99.20
1778;DHT22;886;50.082;8.222;2023-04-29T13:17:19;15.70;99.60
1778;DHT22;886;50.082;8.222;2023-04-29T13:20:05;15.60;99.90
1778;DHT22;886;50.082;8.222;2023-04-29T13:22:36;15.60;99.90
1778;DHT22;886;50.082;8.222;2023-04-29T13:25:04;15.70;99.90
1778;DHT22;886;50.082;8.222;2023-04-29T13:27:49;15.70;99.90
1778;DHT22;886;50.082;8.222;2023-04-29T13:30:18;15.70;99.90
1778;DHT22;886;50.082;8.222;2023-04-29T13:32:45;15.70;99.90
1778;DHT22;886;50.082;8.222;2023-04-29T13:35:21;15.70;99.90
1778;DHT22;886;50.082;8.222;2023-04-29T13:37:53;15.70;99.90
1778;DHT22;886;50.082;8.222;2023-04-29T13:40:20;15.50;99.90
1778;DHT22;886;50.082;8.222;2023-04-29T13:42:48;15.30;99.90
1778;DHT22;886;50.082;8.222;2023-04-29T13:45:33;15.30;99.90
1778;DHT22;886;50.082;8.222;2023-04-29T13:48:08;15.20;99.90
1778;DHT22;886;50.082;8.222;2023-04-29T13:50:56;15.30;99.90
1778;DHT22;886;50.082;8.222;2023-04-29T13:53:29;15.30;99.90
1778;DHT22;886;50.082;8.222;2023-04-29T13:55:59;15.30;99.90
1778;DHT22;886;50.082;8.222;2023-04-29T13:58:47;15.40;99.90
1778;DHT22;886;50.082;8.222;2023-04-29T14:01:21;15.40;99.90
1778;DHT22;886;50.082;8.222;2023-04-29T14:04:10;15.50;99.90
1778;DHT22;886;50.082;8.222;2023-04-29T14:06:38;15.50;99.90
1778;DHT22;886;50.082;8.222;2023-04-29T14:09:06;15.60;99.90
1778;DHT22;886;50.082;8.222;2023-04-29T14:11:34;15.70;99.90
1778;DHT22;886;50.082;8.222;2023-04-29T14:14:02;15.80;99.90
1778;DHT22;886;50.082;8.222;2023-04-29T14:16:32;15.80;99.90
1778;DHT22;886;50.082;8.222;2023-04-29T14:19:06;16.00;99.90
1778;DHT22;886;50.082;8.222;2023-04-29T14:21:34;15.90;99.90
1778;DHT22;886;50.082;8.222;2023-04-29T14:24:02;15.90;99.60
1778;DHT22;886;50.082;8.222;2023-04-29T14:26:30;16.00;99.80
1778;DHT22;886;50.082;8.222;2023-04-29T14:28:58;16.20;99.70
1778;DHT22;886;50.082;8.222;2023-04-29T14:31:32;16.20;99.60
1778;DHT22;886;50.082;8.222;2023-04-29T14:34:07;16.20;99.50
1778;DHT22;886;50.082;8.222;2023-04-29T14:36:35;16.30;99.30
1778;DHT22;886;50.082;8.222;2023-04-29T14:39:03;16.40;99.10
1778;DHT22;886;50.082;8.222;2023-04-29T14:41:31;16.30;99.40
1778;DHT22;886;50.082;8.222;2023-04-29T14:43:58;16.20;99.70
1778;DHT22;886;50.082;8.222;2023-04-29T14:46:26;16.30;99.90
1778;DHT22;886;50.082;8.222;2023-04-29T14:48:56;16.30;99.60
1778;DHT22;886;50.082;8.222;2023-04-29T14:51:23;16.20;99.70
1778;DHT22;886;50.082;8.222;2023-04-29T14:53:54;16.20;99.70
1778;DHT22;886;50.082;8.222;2023-04-29T14:56:21;16.10;99.60
1778;DHT22;886;50.082;8.222;2023-04-29T14:58:50;16.00;99.80
1778;DHT22;886;50.082;8.222;2023-04-29T15:01:17;15.90;99.90
1778;DHT22;886;50.082;8.222;2023-04-29T15:03:45;15.80;99.90
1778;DHT22;886;50.082;8.222;2023-04-29T15:06:14;15.90;99.90
1778;DHT22;886;50.082;8.222;2023-04-29T15:08:41;15.90;99.90
1778;DHT22;886;50.082;8.222;2023-04-29T15:11:09;16.00;99.90
1778;DHT22;886;50.082;8.222;2023-04-29T15:13:36;16.00;99.90
1778;DHT22;886;50.082;8.222;2023-04-29T15:16:06;16.00;99.80
1778;DHT22;886;50.082;8.222;2023-04-29T15:18:35;16.00;99.90
1778;DHT22;886;50.082;8.222;2023-04-29T15:21:02;16.00;99.90
1778;DHT22;886;50.082;8.222;2023-04-29T15:23:32;16.00;99.90
1778;DHT22;886;50.082;8.222;2023-04-29T15:25:59;16.00;99.90
1778;DHT22;886;50.082;8.222;2023-04-29T15:28:26;16.00;99.90
1778;DHT22;886;50.082;8.222;2023-04-29T15:30:54;15.90;99.90
1778;DHT22;886;50.082;8.222;2023-04-29T15:33:22;15.80;99.90
1778;DHT22;886;50.082;8.222;2023-04-29T15:35:52;15.60;99.90
1778;DHT22;886;50.082;8.222;2023-04-29T15:38:22;15.50;99.90
1778;DHT22;886;50.082;8.222;2023-04-29T15:40:51;15.60;99.90
1778;DHT22;886;50.082;8.222;2023-04-29T15:43:23;15.50;99.90
1778;DHT22;886;50.082;8.222;2023-04-29T15:45:50;15.30;99.90
1778;DHT22;886;50.082;8.222;2023-04-29T15:48:20;15.40;99.90
1778;DHT22;886;50.082;8.222;2023-04-29T15:50:47;15.50;99.90
1778;DHT22;886;50.082;8.222;2023-04-29T15:53:14;15.40;99.90
1778;DHT22;886;50.082;8.222;2023-04-29T15:55:42;15.30;99.90
1778;DHT22;886;50.082;8.222;2023-04-29T15:58:11;15.40;99.90
1778;DHT22;886;50.082;8.222;2023-04-29T16:00:38;15.30;99.90
1778;DHT22;886;50.082;8.222;2023-04-29T16:03:06;15.40;99.90
1778;DHT22;886;50.082;8.222;2023-04-29T16:05:34;15.30;99.90
1778;DHT22;886;50.082;8.222;2023-04-29T16:08:03;15.30;99.90
1778;DHT22;886;50.082;8.222;2023-04-29T16:10:36;15.30;99.90
1778;DHT22;886;50.082;8.222;2023-04-29T16:13:04;15.20;99.90
1778;DHT22;886;50.082;8.222;2023-04-29T16:15:33;15.10;99.90
1778;DHT22;886;50.082;8.222;2023-04-29T16:18:01;15.10;99.90
1778;DHT22;886;50.082;8.222;2023-04-29T16:20:29;15.10;99.90
1778;DHT22;886;50.082;8.222;2023-04-29T16:22:57;15.00;99.90
1778;DHT22;886;50.082;8.222;2023-04-29T16:25:24;14.90;99.90
1778;DHT22;886;50.082;8.222;2023-04-29T16:27:52;14.80;99.90
1778;DHT22;886;50.082;8.222;2023-04-29T16:30:20;14.80;99.90
1778;DHT22;886;50.082;8.222;2023-04-29T16:32:49;14.80;99.90